Time;durP1;ratioP1;P1;durP2;ratioP2;P2;SDS_P1;SDS_P2;PMS_P1;PMS_P2;Temp;Humidity;BMP_temperature;BMP_pressure;BME280_temperature;BME280_humidity;BME280_pressure;Samples;Min_cycle;Max_cycle;Signal;HPM_P1;HPM_P2
2023/06/14 00:00:20;;;;;;;10.95;8.18;;;18.70;66.60;;;;;;5036611;28;20030;-83
2023/06/14 00:02:46;;;;;;;7.80;5.57;;;18.70;66.50;;;;;;5036774;28;20025;-83
2023/06/14 00:05:13;;;;;;;5.63;4.43;;;18.60;66.50;;;;;;5018678;28;20046;-79
2023/06/14 00:07:43;;;;;;;5.10;3.83;;;18.60;66.50;;;;;;5036483;28;20490;-80
2023/06/14 00:10:10;;;;;;;4.45;3.25;;;18.60;66.60;;;;;;5036817;28;20164;-76
2023/06/14 00:12:36;;;;;;;3.22;2.60;;;18.50;66.60;;;;;;5034711;28;20032;-78
2023/06/14 00:15:03;;;;;;;3.10;2.65;;;18.50;66.70;;;;;;5036705;28;20022;-77
2023/06/14 00:17:31;;;;;;;4.65;2.60;;;18.50;66.90;;;;;;5035819;28;20033;-77
2023/06/14 00:19:58;;;;;;;2.67;2.25;;;18.40;66.90;;;;;;5018631;28;20032;-76
2023/06/14 00:22:25;;;;;;;39.28;32.70;;;18.30;67.00;;;;;;5017656;28;20026;-77
2023/06/14 00:24:53;;;;;;;26.20;23.23;;;18.30;67.30;;;;;;5036072;28;20086;-74
2023/06/14 00:27:19;;;;;;;12.85;11.55;;;18.30;67.40;;;;;;5018499;28;20116;-81
2023/06/14 00:29:45;;;;;;;8.80;7.80;;;18.30;67.40;;;;;;5035961;28;20428;-79
2023/06/14 00:32:10;;;;;;;6.10;5.50;;;18.30;67.30;;;;;;5036191;28;20022;-79
2023/06/14 00:34:36;;;;;;;5.20;4.30;;;18.30;67.20;;;;;;5035515;28;20361;-78
2023/06/14 00:37:02;;;;;;;4.65;3.80;;;18.20;67.20;;;;;;5035743;28;20464;-78
2023/06/14 00:39:27;;;;;;;4.47;3.17;;;18.10;67.20;;;;;;5035731;28;20040;-77
2023/06/14 00:41:53;;;;;;;3.17;2.80;;;18.10;67.30;;;;;;5035929;28;20028;-81
2023/06/14 00:44:19;;;;;;;4.93;3.38;;;18.00;67.40;;;;;;5035559;28;20108;-79
2023/06/14 00:46:45;;;;;;;73.70;56.13;;;18.00;67.60;;;;;;5035519;28;20022;-74
2023/06/14 00:49:16;;;;;;;25.80;19.48;;;18.00;68.10;;;;;;5036022;28;20159;-77
2023/06/14 00:51:43;;;;;;;17.10;14.02;;;18.10;68.40;;;;;;5036183;28;20172;-77
2023/06/14 00:54:10;;;;;;;13.80;11.23;;;18.20;68.10;;;;;;5036574;28;20029;-79
2023/06/14 00:56:40;;;;;;;9.25;7.85;;;18.30;68.30;;;;;;5036388;28;20384;-78
2023/06/14 00:59:06;;;;;;;7.95;5.90;;;18.50;68.10;;;;;;5017538;28;20029;-78
2023/06/14 01:01:34;;;;;;;5.60;4.70;;;18.60;67.60;;;;;;5036710;28;20183;-77
2023/06/14 01:04:03;;;;;;;5.82;4.15;;;18.70;67.50;;;;;;5035930;28;20104;-77
2023/06/14 01:07:03;;;;;;;6.28;3.58;;;18.80;67.50;;;;;;5034451;28;20048;-78
2023/06/14 01:10:16;;;;;;;5.38;3.17;;;18.90;67.40;;;;;;5035989;28;20035;-77
2023/06/14 01:12:55;;;;;;;3.65;3.20;;;18.90;67.10;;;;;;5012476;28;20037;-77
2023/06/14 01:15:21;;;;;;;3.42;2.90;;;19.00;67.00;;;;;;5035761;28;20360;-78
2023/06/14 01:17:51;;;;;;;3.20;2.70;;;19.10;66.90;;;;;;5018074;28;20124;-78
2023/06/14 01:20:19;;;;;;;2.60;2.40;;;19.20;66.80;;;;;;5018207;28;20427;-77
2023/06/14 01:22:52;;;;;;;4.13;2.50;;;19.30;66.60;;;;;;5035577;28;20147;-76
2023/06/14 01:25:22;;;;;;;2.65;2.45;;;19.30;66.60;;;;;;5035457;28;20092;-77
2023/06/14 01:28:02;;;;;;;3.13;2.63;;;19.40;66.30;;;;;;5017811;28;20060;-77
2023/06/14 01:30:29;;;;;;;2.40;2.20;;;19.50;66.20;;;;;;5036788;28;20029;-77
2023/06/14 01:32:56;;;;;;;3.08;2.65;;;19.50;66.00;;;;;;5038045;28;20029;-77
2023/06/14 01:35:22;;;;;;;3.15;2.58;;;19.50;66.00;;;;;;5035583;28;20032;-76
2023/06/14 01:37:49;;;;;;;2.50;2.30;;;19.60;66.00;;;;;;5018090;28;20033;-77
2023/06/14 01:40:16;;;;;;;3.05;2.38;;;19.70;65.90;;;;;;5035526;28;20065;-78
2023/06/14 01:42:43;;;;;;;3.58;2.30;;;19.70;65.80;;;;;;5035919;28;20116;-77
2023/06/14 01:45:10;;;;;;;2.60;2.35;;;19.80;65.70;;;;;;5034158;28;20029;-77
2023/06/14 01:47:36;;;;;;;3.35;2.55;;;19.80;65.60;;;;;;5035389;28;20049;-79
2023/06/14 01:50:03;;;;;;;3.10;2.60;;;19.90;65.40;;;;;;5017569;28;20030;-78
2023/06/14 01:52:29;;;;;;;2.90;2.55;;;19.90;65.30;;;;;;5035487;28;20025;-78
2023/06/14 01:54:54;;;;;;;2.28;2.08;;;20.00;65.10;;;;;;5035598;28;20024;-78
2023/06/14 01:57:21;;;;;;;3.95;2.58;;;20.10;65.10;;;;;;5035116;28;20037;-78
2023/06/14 01:59:48;;;;;;;3.00;2.20;;;20.10;64.90;;;;;;5033779;28;20026;-78
2023/06/14 02:02:14;;;;;;;3.08;2.38;;;20.10;64.70;;;;;;5035292;28;20029;-76
2023/06/14 02:04:41;;;;;;;3.28;2.40;;;20.20;64.70;;;;;;5034712;28;20108;-76
2023/06/14 02:07:06;;;;;;;2.40;2.20;;;20.20;64.50;;;;;;5035096;28;20033;-76
2023/06/14 02:09:32;;;;;;;2.50;2.30;;;20.20;64.40;;;;;;5034793;28;20067;-76
2023/06/14 02:11:58;;;;;;;2.38;2.05;;;20.20;64.40;;;;;;5034804;28;20468;-76
2023/06/14 02:14:23;;;;;;;2.50;2.30;;;20.20;64.30;;;;;;5034839;28;20021;-76
2023/06/14 02:16:49;;;;;;;3.03;2.28;;;20.30;64.30;;;;;;5034691;28;20029;-75
2023/06/14 02:19:16;;;;;;;4.13;2.50;;;20.30;64.20;;;;;;5034663;28;20104;-76
2023/06/14 02:21:42;;;;;;;3.35;2.40;;;20.30;64.10;;;;;;5016782;28;20037;-77
2023/06/14 02:24:08;;;;;;;3.70;2.45;;;20.40;64.10;;;;;;5033369;28;20075;-77
2023/06/14 02:26:34;;;;;;;2.17;2.03;;;20.40;64.10;;;;;;5034540;28;20025;-76
2023/06/14 02:28:59;;;;;;;4.32;2.30;;;20.40;64.00;;;;;;5034489;28;20021;-77
2023/06/14 02:31:27;;;;;;;2.30;2.10;;;20.50;64.00;;;;;;5034250;28;20030;-74
2023/06/14 02:33:52;;;;;;;2.60;2.40;;;20.50;63.80;;;;;;5034109;28;20086;-76
2023/06/14 02:36:18;;;;;;;2.40;2.20;;;20.50;63.80;;;;;;5017425;28;20112;-76
2023/06/14 02:38:45;;;;;;;3.40;2.42;;;20.60;63.70;;;;;;5034236;28;20519;-76
2023/06/14 02:41:10;;;;;;;3.22;2.40;;;20.60;63.70;;;;;;5034290;28;20029;-76
2023/06/14 02:43:36;;;;;;;2.88;2.30;;;20.60;63.60;;;;;;5033043;28;20389;-76
2023/06/14 02:46:02;;;;;;;2.85;2.13;;;20.60;63.60;;;;;;5030182;28;20036;-75
2023/06/14 02:48:28;;;;;;;2.35;2.15;;;20.60;63.50;;;;;;5014641;28;20030;-75
2023/06/14 02:50:53;;;;;;;2.40;2.20;;;20.60;63.50;;;;;;5014444;28;20100;-77
2023/06/14 02:53:19;;;;;;;4.00;2.42;;;20.60;63.50;;;;;;5014398;28;20054;-76
2023/06/14 02:55:46;;;;;;;3.28;2.38;;;20.60;63.40;;;;;;5013211;28;20026;-75
2023/06/14 02:58:12;;;;;;;3.70;2.55;;;20.60;63.30;;;;;;5014416;28;20032;-76
2023/06/14 03:00:40;;;;;;;2.70;2.50;;;20.50;63.30;;;;;;5014015;28;20521;-75
2023/06/14 03:03:13;;;;;;;2.45;2.25;;;20.50;63.40;;;;;;5013653;28;20431;-77
2023/06/14 03:05:49;;;;;;;2.35;2.15;;;20.50;63.50;;;;;;5023840;28;20395;-77
2023/06/14 03:08:19;;;;;;;2.88;2.50;;;20.50;63.40;;;;;;5016114;28;20033;-77
2023/06/14 03:10:48;;;;;;;2.90;2.50;;;20.50;63.40;;;;;;5033858;28;20022;-77
2023/06/14 03:13:15;;;;;;;3.60;2.35;;;20.60;63.40;;;;;;5015894;28;20468;-78
2023/06/14 03:15:42;;;;;;;2.40;2.20;;;20.60;63.30;;;;;;5033934;28;20021;-78
2023/06/14 03:18:09;;;;;;;3.55;2.30;;;20.60;63.30;;;;;;5016145;28;20062;-78
2023/06/14 03:20:35;;;;;;;4.63;2.83;;;20.60;63.30;;;;;;5032733;28;20026;-78
2023/06/14 03:23:02;;;;;;;3.28;2.63;;;20.70;63.30;;;;;;5033649;28;20030;-79
2023/06/14 03:25:29;;;;;;;2.78;2.35;;;20.60;63.10;;;;;;5033810;28;20380;-78
2023/06/14 03:27:55;;;;;;;2.60;2.40;;;20.60;63.10;;;;;;5033553;28;20036;-78
2023/06/14 03:30:21;;;;;;;3.42;2.50;;;20.60;63.10;;;;;;5033706;28;20494;-77
2023/06/14 03:32:47;;;;;;;2.60;2.30;;;20.60;63.20;;;;;;5015884;28;20033;-77
2023/06/14 03:35:16;;;;;;;3.55;2.40;;;20.60;63.10;;;;;;5033884;28;20036;-76
2023/06/14 03:37:43;;;;;;;3.00;2.70;;;20.60;63.10;;;;;;5034547;28;20040;-76
2023/06/14 03:40:10;;;;;;;4.20;2.60;;;20.60;63.20;;;;;;5035350;28;20052;-76
2023/06/14 03:42:35;;;;;;;2.70;2.50;;;20.60;63.20;;;;;;5016610;28;20482;-77
2023/06/14 03:45:01;;;;;;;2.90;2.60;;;20.60;63.20;;;;;;5034198;28;20104;-79
2023/06/14 03:47:27;;;;;;;7.97;2.80;;;20.60;63.20;;;;;;5011748;28;20032;-79
2023/06/14 03:49:52;;;;;;;4.60;2.60;;;20.70;63.20;;;;;;5013365;28;20392;-80
2023/06/14 03:52:18;;;;;;;3.95;2.60;;;20.70;63.20;;;;;;5014077;28;20456;-79
2023/06/14 03:54:44;;;;;;;3.78;2.55;;;20.70;63.10;;;;;;5014426;28;20026;-78
2023/06/14 03:57:10;;;;;;;2.70;2.50;;;20.80;63.10;;;;;;5014000;28;20384;-79
2023/06/14 03:59:36;;;;;;;2.90;2.60;;;20.80;63.00;;;;;;5013699;28;20026;-79
2023/06/14 04:02:02;;;;;;;3.72;2.83;;;20.80;63.00;;;;;;5013779;28;20071;-80
2023/06/14 04:04:28;;;;;;;4.20;2.58;;;20.90;63.00;;;;;;5013533;28;20033;-76
2023/06/14 04:06:58;;;;;;;3.80;2.40;;;20.90;62.90;;;;;;4993007;28;20038;-78
2023/06/14 04:09:24;;;;;;;2.47;2.28;;;20.90;62.90;;;;;;4993973;28;20027;-77
2023/06/14 04:11:52;;;;;;;3.05;2.40;;;20.90;62.90;;;;;;4994085;28;20033;-78
2023/06/14 04:14:21;;;;;;;3.78;2.30;;;20.90;62.90;;;;;;4994179;28;20517;-79
2023/06/14 04:16:48;;;;;;;3.30;2.95;;;21.00;62.90;;;;;;4976417;28;20465;-80
2023/06/14 04:19:15;;;;;;;2.88;2.50;;;20.90;62.70;;;;;;4993842;28;20101;-79
2023/06/14 04:21:41;;;;;;;2.75;2.50;;;20.80;62.80;;;;;;4994006;28;20528;-78
2023/06/14 04:24:13;;;;;;;4.20;2.53;;;20.80;62.90;;;;;;5013201;28;20069;-74
2023/06/14 04:26:41;;;;;;;3.83;2.90;;;20.80;63.00;;;;;;5013643;28;20026;-73
2023/06/14 04:29:07;;;;;;;4.75;2.90;;;20.80;63.00;;;;;;5013201;28;20072;-73
2023/06/14 04:31:33;;;;;;;2.70;2.45;;;20.90;63.10;;;;;;4996168;28;20058;-73
2023/06/14 04:33:59;;;;;;;2.83;2.50;;;20.90;63.00;;;;;;5013742;28;20026;-72
2023/06/14 04:36:27;;;;;;;3.38;2.53;;;21.00;63.00;;;;;;5016779;28;20030;-72
2023/06/14 04:38:54;;;;;;;4.47;2.88;;;21.00;63.00;;;;;;5016631;28;20039;-71
2023/06/14 04:41:28;;;;;;;3.60;2.50;;;21.00;63.00;;;;;;4999479;28;20064;-72
2023/06/14 04:43:54;;;;;;;3.85;2.67;;;21.00;62.90;;;;;;5016654;28;20440;-72
2023/06/14 04:46:20;;;;;;;3.70;2.70;;;21.00;62.90;;;;;;5016461;28;20064;-72
2023/06/14 04:48:47;;;;;;;2.67;2.30;;;21.10;62.90;;;;;;4998680;28;20121;-72
2023/06/14 04:51:13;;;;;;;3.45;2.78;;;21.20;62.90;;;;;;4998542;28;20030;-73
2023/06/14 04:53:38;;;;;;;2.53;2.33;;;21.20;62.80;;;;;;4999172;28;20080;-72
2023/06/14 04:56:04;;;;;;;2.80;2.50;;;21.10;62.70;;;;;;5016726;28;20472;-74
2023/06/14 04:58:30;;;;;;;3.60;2.50;;;21.20;62.80;;;;;;4998665;28;20152;-73
2023/06/14 05:00:56;;;;;;;4.07;2.30;;;21.20;62.80;;;;;;5016324;28;20029;-72
2023/06/14 05:03:26;;;;;;;5.05;2.90;;;21.20;62.70;;;;;;5016088;28;20105;-71
2023/06/14 05:05:53;;;;;;;3.33;2.53;;;21.20;62.70;;;;;;5027352;28;20068;-73
2023/06/14 05:08:20;;;;;;;3.42;2.15;;;21.20;62.70;;;;;;5035855;28;20025;-74
2023/06/14 05:10:45;;;;;;;2.95;2.65;;;21.10;62.60;;;;;;5018046;28;20052;-72
2023/06/14 05:13:11;;;;;;;4.60;2.83;;;21.10;62.70;;;;;;5035574;28;20471;-74
2023/06/14 05:15:42;;;;;;;5.15;3.63;;;21.10;62.80;;;;;;5017658;28;20025;-75
2023/06/14 05:18:09;;;;;;;5.85;3.75;;;21.10;62.90;;;;;;5035748;28;20155;-71
2023/06/14 05:20:36;;;;;;;3.55;2.75;;;21.00;62.80;;;;;;5017765;28;20029;-72
2023/06/14 05:23:02;;;;;;;4.05;2.90;;;21.00;62.90;;;;;;5017668;28;20064;-72
2023/06/14 05:25:28;;;;;;;4.75;3.00;;;21.00;63.00;;;;;;5035639;28;20175;-71
2023/06/14 05:27:54;;;;;;;2.88;2.58;;;21.00;63.10;;;;;;5017643;28;20029;-74
2023/06/14 05:30:20;;;;;;;3.33;2.75;;;21.00;63.10;;;;;;5034138;28;20065;-80
2023/06/14 05:32:46;;;;;;;3.95;2.92;;;21.00;63.10;;;;;;5033885;28;20084;-72
2023/06/14 05:35:12;;;;;;;3.70;2.90;;;21.10;63.20;;;;;;5035378;28;20026;-73
2023/06/14 05:37:38;;;;;;;2.70;2.45;;;21.10;63.20;;;;;;5019731;28;20076;-72
2023/06/14 05:40:05;;;;;;;3.25;2.40;;;21.10;63.10;;;;;;5014383;28;20464;-73
2023/06/14 05:42:32;;;;;;;4.80;2.65;;;21.20;63.20;;;;;;5014320;28;20029;-73
2023/06/14 05:44:57;;;;;;;2.97;2.40;;;21.30;63.10;;;;;;5012511;28;20439;-73
2023/06/14 05:47:23;;;;;;;2.97;2.60;;;21.30;63.10;;;;;;5014065;28;20025;-73
2023/06/14 05:49:48;;;;;;;3.05;2.75;;;21.30;63.00;;;;;;5014424;28;20030;-73
2023/06/14 05:52:14;;;;;;;3.72;2.60;;;21.40;63.00;;;;;;5029719;28;20026;-73
2023/06/14 05:54:41;;;;;;;3.70;2.58;;;21.40;62.90;;;;;;5013569;28;20392;-74
2023/06/14 05:57:07;;;;;;;2.50;2.28;;;21.50;62.90;;;;;;5014226;28;20033;-73
2023/06/14 05:59:32;;;;;;;3.42;2.50;;;21.50;62.90;;;;;;5013826;28;20053;-72
2023/06/14 06:01:58;;;;;;;4.15;2.38;;;21.60;62.90;;;;;;5013800;28;20365;-72
2023/06/14 06:04:24;;;;;;;4.13;2.92;;;21.60;62.80;;;;;;5013871;28;20037;-72
2023/06/14 06:06:49;;;;;;;3.53;2.92;;;21.60;62.70;;;;;;5033306;28;20049;-74
2023/06/14 06:09:16;;;;;;;2.80;2.42;;;21.60;62.60;;;;;;5033172;28;20487;-74
2023/06/14 06:11:42;;;;;;;2.80;2.33;;;21.70;62.70;;;;;;5033758;28;20095;-73
2023/06/14 06:14:08;;;;;;;2.50;2.30;;;21.70;62.60;;;;;;5043240;28;20063;-74
2023/06/14 06:16:33;;;;;;;3.97;2.90;;;21.70;62.70;;;;;;5017562;28;20448;-75
2023/06/14 06:18:59;;;;;;;2.45;2.20;;;21.60;62.70;;;;;;5033206;28;20065;-78
2023/06/14 06:21:25;;;;;;;4.30;2.83;;;21.60;62.80;;;;;;5015929;28;20112;-75
2023/06/14 06:23:50;;;;;;;4.07;2.70;;;21.60;62.80;;;;;;5033624;28;20060;-76
2023/06/14 06:26:16;;;;;;;4.22;2.75;;;21.60;62.80;;;;;;5033089;28;20099;-73
2023/06/14 06:28:41;;;;;;;4.05;2.88;;;21.60;62.90;;;;;;5033181;28;20037;-73
2023/06/14 06:31:07;;;;;;;2.85;2.55;;;21.60;63.00;;;;;;5033121;28;20029;-71
2023/06/14 06:33:33;;;;;;;3.08;2.60;;;21.60;63.10;;;;;;5033099;28;20037;-71
2023/06/14 06:35:58;;;;;;;2.65;2.40;;;21.60;63.20;;;;;;5033080;28;20033;-74
2023/06/14 06:38:24;;;;;;;3.20;2.45;;;21.60;63.10;;;;;;5032424;28;20510;-74
2023/06/14 06:40:50;;;;;;;3.50;2.90;;;21.70;63.10;;;;;;5033199;28;20025;-76
2023/06/14 06:43:17;;;;;;;3.17;2.65;;;21.70;63.10;;;;;;5033464;28;20482;-72
2023/06/14 06:45:42;;;;;;;4.60;2.72;;;21.70;63.00;;;;;;5014405;28;20099;-70
2023/06/14 06:48:10;;;;;;;3.40;2.70;;;21.70;63.00;;;;;;5032991;28;20455;-68
2023/06/14 06:50:36;;;;;;;3.45;2.67;;;21.70;63.00;;;;;;5015558;28;20479;-69
2023/06/14 06:53:02;;;;;;;3.17;2.30;;;21.70;62.90;;;;;;5033677;28;20086;-69
2023/06/14 06:55:28;;;;;;;3.00;2.25;;;21.80;63.00;;;;;;5014896;28;20502;-70
2023/06/14 06:57:53;;;;;;;2.90;2.60;;;21.80;62.90;;;;;;5032756;28;20029;-70
2023/06/14 07:00:20;;;;;;;2.90;2.67;;;21.80;63.00;;;;;;5033166;28;20043;-70
2023/06/14 07:02:46;;;;;;;3.72;2.88;;;21.80;63.10;;;;;;5034164;28;20070;-70
2023/06/14 07:05:12;;;;;;;3.88;2.97;;;21.80;63.00;;;;;;5015941;28;20476;-70
2023/06/14 07:07:37;;;;;;;2.92;2.30;;;21.90;63.00;;;;;;5032540;28;20037;-70
2023/06/14 07:10:04;;;;;;;3.40;3.10;;;21.90;63.00;;;;;;5033774;28;20083;-70
2023/06/14 07:12:35;;;;;;;3.53;2.80;;;21.90;63.00;;;;;;5033508;28;20022;-70
2023/06/14 07:15:01;;;;;;;2.53;2.33;;;21.90;62.90;;;;;;5033433;28;20192;-70
2023/06/14 07:17:27;;;;;;;3.28;2.40;;;22.00;63.00;;;;;;5032820;28;20068;-70
2023/06/14 07:19:53;;;;;;;2.75;2.50;;;22.00;63.10;;;;;;5015753;28;20032;-70
2023/06/14 07:22:19;;;;;;;2.70;2.50;;;22.00;63.20;;;;;;5033386;28;20030;-71
2023/06/14 07:24:45;;;;;;;3.92;2.70;;;22.00;63.20;;;;;;5016499;28;20025;-69
2023/06/14 07:27:13;;;;;;;4.03;2.95;;;22.10;63.20;;;;;;5033381;28;20460;-69
2023/06/14 07:29:38;;;;;;;3.28;2.70;;;22.10;63.20;;;;;;5033184;28;20026;-69
2023/06/14 07:32:04;;;;;;;5.85;3.10;;;22.10;63.10;;;;;;5034084;28;20044;-70
2023/06/14 07:34:30;;;;;;;4.57;3.05;;;22.10;63.10;;;;;;5015644;28;20032;-71
2023/06/14 07:36:56;;;;;;;4.60;2.90;;;22.10;63.10;;;;;;5033696;28;20029;-70
2023/06/14 07:39:22;;;;;;;3.15;2.63;;;22.10;63.20;;;;;;5033273;28;20037;-70
2023/06/14 07:41:47;;;;;;;4.82;2.90;;;22.20;63.30;;;;;;5015407;28;20383;-69
2023/06/14 07:44:13;;;;;;;4.13;3.33;;;22.30;63.30;;;;;;5033792;28;20061;-70
2023/06/14 07:46:39;;;;;;;3.55;2.50;;;22.30;63.20;;;;;;5033765;28;20374;-70
2023/06/14 07:49:05;;;;;;;3.28;2.45;;;22.30;63.20;;;;;;5033410;28;20030;-70
2023/06/14 07:51:30;;;;;;;3.85;2.90;;;22.30;63.20;;;;;;5033181;28;20117;-70
2023/06/14 07:53:56;;;;;;;4.18;2.60;;;22.30;63.20;;;;;;5033393;28;20384;-70
2023/06/14 07:56:23;;;;;;;3.40;2.80;;;22.30;63.20;;;;;;5031879;28;20121;-70
2023/06/14 07:58:48;;;;;;;5.97;2.80;;;22.40;63.20;;;;;;5031910;28;20041;-70
2023/06/14 08:01:15;;;;;;;3.35;2.60;;;22.40;63.20;;;;;;5033044;28;20056;-70
2023/06/14 08:03:40;;;;;;;4.85;2.63;;;22.40;63.80;;;;;;5033227;28;20468;-70
2023/06/14 08:06:07;;;;;;;3.63;2.72;;;22.40;63.10;;;;;;5033128;28;20064;-70
2023/06/14 08:08:33;;;;;;;4.30;2.67;;;22.40;63.10;;;;;;5016856;28;20082;-70
2023/06/14 08:10:58;;;;;;;3.72;2.70;;;22.40;63.10;;;;;;5036789;28;20422;-70
2023/06/14 08:13:24;;;;;;;3.20;2.42;;;22.50;63.20;;;;;;5036562;28;20029;-70
2023/06/14 08:15:50;;;;;;;3.05;2.75;;;22.50;63.20;;;;;;5019598;28;20387;-71
2023/06/14 08:18:15;;;;;;;3.97;2.60;;;22.50;63.10;;;;;;5036813;28;20034;-72
2023/06/14 08:20:41;;;;;;;3.92;2.75;;;22.60;63.10;;;;;;5019054;28;20030;-70
2023/06/14 08:23:08;;;;;;;3.28;2.60;;;22.60;63.10;;;;;;5036613;28;20029;-70
2023/06/14 08:25:34;;;;;;;3.80;2.58;;;22.60;63.10;;;;;;5036415;28;20032;-70
2023/06/14 08:28:00;;;;;;;5.35;2.83;;;22.70;63.20;;;;;;5034936;28;20026;-70
2023/06/14 08:30:26;;;;;;;3.10;2.75;;;22.70;63.10;;;;;;5036823;28;20035;-70
2023/06/14 08:32:52;;;;;;;4.80;3.15;;;22.80;63.00;;;;;;5036503;28;20030;-71
2023/06/14 08:35:18;;;;;;;3.83;2.88;;;22.90;62.90;;;;;;5036595;28;20028;-70
2023/06/14 08:37:44;;;;;;;5.28;2.70;;;22.90;62.80;;;;;;5018760;28;20079;-69
2023/06/14 08:40:20;;;;;;;5.50;2.88;;;22.90;62.80;;;;;;5035473;28;20036;-69
2023/06/14 08:42:50;;;;;;;3.42;2.90;;;22.90;62.70;;;;;;5036244;28;20490;-70
2023/06/14 08:45:15;;;;;;;4.57;3.17;;;22.90;62.60;;;;;;5036630;28;20021;-72
2023/06/14 08:47:41;;;;;;;3.60;2.55;;;23.00;62.70;;;;;;5018530;28;20129;-71
2023/06/14 08:50:08;;;;;;;3.33;2.60;;;23.00;62.50;;;;;;5034950;28;20117;-71
2023/06/14 08:52:40;;;;;;;3.28;2.47;;;23.00;62.50;;;;;;5035963;28;20022;-71
2023/06/14 08:55:09;;;;;;;4.55;3.05;;;23.00;62.50;;;;;;5036480;28;20109;-70
2023/06/14 08:57:38;;;;;;;4.18;3.00;;;23.10;62.50;;;;;;5036399;28;20037;-72
2023/06/14 09:00:11;;;;;;;4.53;2.63;;;23.20;62.40;;;;;;5035947;28;20057;-71
2023/06/14 09:02:38;;;;;;;5.05;2.63;;;23.20;62.30;;;;;;5036013;28;20029;-74
2023/06/14 09:05:04;;;;;;;6.03;2.90;;;23.20;62.20;;;;;;5035722;28;20054;-71
2023/06/14 09:07:29;;;;;;;4.28;2.78;;;23.20;62.20;;;;;;5017812;28;20056;-71
2023/06/14 09:10:10;;;;;;;3.03;2.67;;;23.20;62.10;;;;;;5036187;28;20036;-71
2023/06/14 09:12:36;;;;;;;5.57;3.25;;;23.30;62.10;;;;;;5036178;28;20030;-71
2023/06/14 09:15:06;;;;;;;3.70;2.90;;;23.30;62.10;;;;;;5035558;28;20070;-70
2023/06/14 09:17:38;;;;;;;3.10;2.50;;;23.30;62.00;;;;;;5018018;28;20029;-71
2023/06/14 09:20:26;;;;;;;3.00;2.40;;;23.40;61.80;;;;;;5034562;28;20029;-71
2023/06/14 09:22:53;;;;;;;2.92;2.40;;;23.40;61.70;;;;;;5017868;28;20029;-71
2023/06/14 09:25:19;;;;;;;3.60;2.60;;;23.40;61.60;;;;;;5035538;28;20483;-71
2023/06/14 09:27:47;;;;;;;4.03;2.70;;;23.50;61.60;;;;;;5035736;28;20061;-70
2023/06/14 09:30:13;;;;;;;3.08;2.40;;;23.50;61.50;;;;;;5035307;28;20025;-70
2023/06/14 09:32:40;;;;;;;2.50;2.30;;;23.60;61.40;;;;;;5017832;28;20375;-71
2023/06/14 09:35:09;;;;;;;3.35;2.50;;;23.60;61.30;;;;;;5035358;28;20017;-70
2023/06/14 09:37:37;;;;;;;2.45;2.10;;;23.60;61.80;;;;;;5035320;28;20036;-72
2023/06/14 09:40:03;;;;;;;2.63;2.42;;;23.70;61.10;;;;;;5017710;28;20029;-71
2023/06/14 09:42:29;;;;;;;3.33;2.65;;;23.70;60.90;;;;;;5034252;28;20032;-71
2023/06/14 09:44:56;;;;;;;3.03;2.65;;;23.70;60.80;;;;;;5034171;28;20116;-71
2023/06/14 09:47:23;;;;;;;2.33;2.10;;;23.70;60.80;;;;;;5017014;28;20029;-71
2023/06/14 09:49:50;;;;;;;4.63;2.30;;;23.80;60.70;;;;;;5017670;28;20025;-74
2023/06/14 09:52:23;;;;;;;3.50;2.30;;;23.80;60.60;;;;;;5033949;28;20375;-77
2023/06/14 09:54:49;;;;;;;2.47;2.28;;;23.90;60.40;;;;;;5017306;28;20456;-76
2023/06/14 09:57:20;;;;;;;3.97;2.20;;;23.90;60.30;;;;;;5034760;28;20080;-76
2023/06/14 09:59:49;;;;;;;2.83;2.38;;;23.90;60.20;;;;;;5034838;28;20036;-77
2023/06/14 10:02:27;;;;;;;2.40;2.15;;;24.00;60.10;;;;;;5034988;28;20144;-75
2023/06/14 10:05:08;;;;;;;2.40;2.20;;;24.10;59.90;;;;;;5035016;28;20029;-75
2023/06/14 10:08:03;;;;;;;2.80;2.20;;;24.20;59.70;;;;;;5034695;28;20073;-77
2023/06/14 10:10:28;;;;;;;2.08;1.90;;;24.30;59.50;;;;;;5034266;28;20048;-75
2023/06/14 10:12:54;;;;;;;2.42;2.20;;;24.40;59.40;;;;;;5035160;28;20104;-77
2023/06/14 10:15:52;;;;;;;2.38;2.10;;;24.60;59.20;;;;;;5033582;28;20064;-77
2023/06/14 10:18:36;;;;;;;2.17;1.90;;;24.70;58.80;;;;;;5034661;28;20109;-76
2023/06/14 10:21:13;;;;;;;2.50;2.00;;;24.80;58.40;;;;;;5034471;28;20379;-77
2023/06/14 10:23:42;;;;;;;2.58;1.90;;;24.90;58.20;;;;;;5034248;28;20463;-77
2023/06/14 10:26:08;;;;;;;2.60;2.20;;;25.00;58.10;;;;;;5034196;28;20025;-77
2023/06/14 10:28:37;;;;;;;4.18;2.03;;;25.10;58.00;;;;;;5034116;28;20460;-77
2023/06/14 10:31:04;;;;;;;3.10;2.13;;;25.20;57.80;;;;;;5016666;28;20033;-76
2023/06/14 10:33:31;;;;;;;4.00;1.98;;;25.30;57.60;;;;;;5034110;28;20026;-77
2023/06/14 10:36:10;;;;;;;2.40;2.20;;;25.40;57.60;;;;;;5034374;28;20087;-76
2023/06/14 10:38:38;;;;;;;2.63;2.22;;;25.40;57.10;;;;;;5034268;28;20030;-76
2023/06/14 10:41:05;;;;;;;2.40;2.03;;;25.50;57.20;;;;;;5015900;28;20037;-76
2023/06/14 10:43:31;;;;;;;2.97;2.30;;;25.50;57.00;;;;;;5034130;28;20030;-77
2023/06/14 10:46:16;;;;;;;2.95;1.90;;;25.60;56.90;;;;;;5033948;28;20029;-77
2023/06/14 10:48:44;;;;;;;2.40;1.90;;;25.70;56.50;;;;;;5033906;28;20030;-77
2023/06/14 10:51:20;;;;;;;4.20;2.20;;;25.70;56.70;;;;;;5033878;28;20490;-76
2023/06/14 10:53:49;;;;;;;3.13;1.90;;;25.80;56.60;;;;;;5016274;28;20030;-76
2023/06/14 10:56:28;;;;;;;2.22;1.88;;;25.90;56.60;;;;;;5034146;28;20125;-76
2023/06/14 10:58:56;;;;;;;2.10;1.92;;;26.00;56.30;;;;;;5016056;28;20034;-77
2023/06/14 11:01:39;;;;;;;2.45;1.75;;;26.00;56.40;;;;;;5016108;28;20029;-76
2023/06/14 11:04:10;;;;;;;1.95;1.75;;;26.10;56.20;;;;;;5016058;28;20029;-78
2023/06/14 11:06:49;;;;;;;2.35;2.10;;;26.20;56.10;;;;;;5033522;28;20056;-76
2023/06/14 11:09:47;;;;;;;3.95;2.20;;;26.20;55.80;;;;;;5033824;28;20108;-77
2023/06/14 11:12:14;;;;;;;3.35;2.00;;;26.30;56.20;;;;;;5033639;28;20034;-76
2023/06/14 11:14:40;;;;;;;2.05;1.80;;;26.30;55.70;;;;;;5033545;28;20036;-77
2023/06/14 11:17:06;;;;;;;2.28;1.77;;;26.40;55.70;;;;;;5033703;28;20137;-78
2023/06/14 11:19:32;;;;;;;2.45;2.17;;;26.40;55.50;;;;;;5015956;28;20083;-76
2023/06/14 11:21:59;;;;;;;4.35;1.90;;;26.50;55.40;;;;;;5033904;28;20456;-76
2023/06/14 11:24:25;;;;;;;2.50;2.08;;;26.60;55.30;;;;;;5033444;28;20084;-77
2023/06/14 11:26:50;;;;;;;2.53;1.95;;;26.60;55.10;;;;;;5033401;28;20459;-76
2023/06/14 11:29:17;;;;;;;3.00;2.15;;;26.70;55.10;;;;;;5033256;28;20430;-76
2023/06/14 11:31:45;;;;;;;2.38;2.15;;;26.80;54.90;;;;;;5033630;28;20030;-77
2023/06/14 11:34:12;;;;;;;2.00;1.85;;;26.80;54.70;;;;;;5033666;28;20022;-76
2023/06/14 11:36:38;;;;;;;3.25;2.10;;;26.90;54.50;;;;;;5033644;28;20448;-77
2023/06/14 11:39:09;;;;;;;2.17;2.00;;;26.90;54.40;;;;;;5033507;28;20033;-76
2023/06/14 11:41:42;;;;;;;2.55;2.05;;;26.90;54.20;;;;;;5015466;28;20447;-76
2023/06/14 11:44:08;;;;;;;;;;;27.00;54.00;;;;;;5036809;28;20026;-76
2023/06/14 11:46:34;;;;;;;2.78;2.00;;;27.00;53.20;;;;;;5037422;28;19905;-78
2023/06/14 11:49:04;;;;;;;2.03;1.70;;;27.00;53.80;;;;;;5037346;28;20065;-76
2023/06/14 11:51:34;;;;;;;1.90;1.75;;;27.00;53.70;;;;;;5037432;28;20460;-76
2023/06/14 11:54:02;;;;;;;2.63;1.77;;;27.00;53.60;;;;;;5019627;28;20029;-77
2023/06/14 11:56:29;;;;;;;2.10;2.00;;;27.00;53.50;;;;;;5037685;28;20087;-76
2023/06/14 11:58:58;;;;;;;2.50;2.20;;;27.10;53.60;;;;;;5037327;28;20036;-77
2023/06/14 12:01:24;;;;;;;2.22;1.85;;;27.10;53.50;;;;;;5037050;28;20522;-76
2023/06/14 12:03:59;;;;;;;2.08;1.75;;;27.10;53.40;;;;;;5037540;28;20057;-77
2023/06/14 12:06:31;;;;;;;2.00;1.90;;;27.20;53.30;;;;;;5038256;28;20045;-78
2023/06/14 12:08:57;;;;;;;2.70;1.92;;;27.20;53.20;;;;;;5037877;28;20029;-77
2023/06/14 12:11:23;;;;;;;3.08;1.90;;;27.20;53.20;;;;;;5037522;28;20467;-76
2023/06/14 12:13:49;;;;;;;2.28;2.00;;;27.20;53.00;;;;;;5037293;28;20029;-77
2023/06/14 12:16:15;;;;;;;2.80;1.75;;;27.20;52.90;;;;;;5037115;28;20025;-76
2023/06/14 12:18:43;;;;;;;2.17;1.98;;;27.20;52.90;;;;;;5037097;28;20464;-79
2023/06/14 12:21:18;;;;;;;2.90;2.10;;;27.20;52.80;;;;;;5036694;28;20032;-77
2023/06/14 12:23:49;;;;;;;2.08;1.63;;;27.20;52.90;;;;;;5020510;28;20022;-79
2023/06/14 12:26:19;;;;;;;2.78;1.90;;;27.20;52.80;;;;;;5018960;28;20025;-77
2023/06/14 12:28:48;;;;;;;1.90;1.80;;;27.10;52.70;;;;;;5018868;28;20037;-77
2023/06/14 12:31:16;;;;;;;1.80;1.70;;;27.20;52.70;;;;;;5018840;28;20089;-76
2023/06/14 12:33:42;;;;;;;2.55;2.05;;;27.20;52.60;;;;;;5018782;28;20030;-76
2023/06/14 12:36:09;;;;;;;1.90;1.80;;;27.20;52.50;;;;;;5036628;28;20478;-76
2023/06/14 12:38:35;;;;;;;2.70;1.90;;;27.20;52.40;;;;;;5018805;28;20116;-76
2023/06/14 12:41:01;;;;;;;2.55;1.70;;;27.30;52.30;;;;;;5036617;28;20040;-77
2023/06/14 12:43:27;;;;;;;1.73;1.63;;;27.40;52.30;;;;;;5035251;28;20360;-77
2023/06/14 12:45:53;;;;;;;2.10;1.90;;;27.50;52.00;;;;;;5036275;28;20025;-76
2023/06/14 12:48:19;;;;;;;2.00;1.80;;;27.50;51.90;;;;;;5036181;28;20479;-76